EDT,Max TemperatureF,Mean TemperatureF,Min TemperatureF,Max Dew PointF,MeanDew PointF,Min DewpointF,Max Humidity, Mean Humidity, Min Humidity, Max Sea Level PressureIn, Mean Sea Level PressureIn, Min Sea Level PressureIn, Max VisibilityMiles, Mean VisibilityMiles, Min VisibilityMiles, Max Wind SpeedMPH, Mean Wind SpeedMPH, Max Gust SpeedMPH,PrecipitationIn, CloudCover, Events, WindDirDegrees
2013-4-1,50,44,37,45,34,21,93,65,43,30.12,29.98,29.86,10,10,7,16,8,23,0.00,6,,292
2013-4-2,48,39,30,23,17,12,65,45,25,30.26,30.20,30.12,10,10,10,13,4,16,0.00,0,,298
2013-4-3,50,38,26,23,17,14,74,42,24,30.36,30.29,30.24,10,10,10,12,3,18,0.00,0,,51
2013-4-4,50,42,35,39,25,16,87,51,34,30.26,30.11,30.00,10,10,2,10,5,,0.00,3,,66
2013-4-5,62,48,35,39,32,25,100,58,26,30.11,30.04,29.98,10,8,0,14,3,25,0.00,1,,306
2013-4-6,71,55,39,34,29,27,65,39,23,30.17,30.08,29.98,10,10,10,12,5,17,0.00,0,,150
2013-4-7,73,65,57,43,38,32,48,38,27,30.05,30.01,29.97,10,10,7,21,11,28,0.00,4,,214
2013-4-8,73,65,57,52,46,37,59,48,38,30.04,30.00,29.95,10,10,7,23,8,33,0.00,5,,198
2013-4-9,78,70,62,55,52,50,64,52,39,30.12,30.06,30.00,10,10,7,21,9,26,0.00,2,,206
2013-4-10,82,72,62,57,53,48,72,51,35,30.06,29.97,29.85,10,10,5,22,8,31,0.00,1,,205
2013-4-11,78,68,57,59,54,50,94,63,39,29.85,29.74,29.56,10,9,2,36,9,61,0.00,5,,189
2013-4-12,59,50,42,55,40,30,94,67,47,29.96,29.79,29.55,10,10,4,21,12,38,0.00,7,,265
2013-4-13,60,48,35,36,34,32,87,59,36,30.08,30.03,29.97,10,10,10,15,6,20,0.00,0,,260
2013-4-14,73,56,39,50,39,34,93,54,23,30.05,29.98,29.89,10,10,7,17,5,28,0.00,1,,154
2013-4-15,73,64,55,55,51,48,82,68,47,30.04,29.99,29.93,10,10,10,10,4,16,0.00,5,,167
2013-4-16,82,72,62,61,57,52,78,62,45,30.17,30.10,30.00,10,10,7,20,11,29,0.00,2,,212
2013-4-17,71,65,59,63,60,55,100,87,68,30.23,30.13,30.01,10,8,0,14,6,23,0.00,4,,132
2013-4-18,82,73,64,59,54,46,73,54,30,30.01,29.91,29.70,10,10,7,23,12,32,0.00,0,,186
2013-4-19,73,57,39,61,42,32,94,71,47,30.07,29.81,29.57,10,9,2,24,14,36,0.00,7,,247
2013-4-20,55,45,35,32,29,25,81,56,33,30.34,30.20,30.08,10,10,10,15,7,20,0.00,1,,272
2013-4-21,60,46,33,34,30,27,81,49,29,30.46,30.37,30.30,10,10,10,12,6,16,0.00,0,,46
2013-4-22,68,54,39,41,36,28,76,48,33,30.33,30.24,30.14,10,10,10,9,4,,0.00,0,,99
2013-4-23,69,58,46,48,43,37,81,54,40,30.16,30.08,29.97,10,10,7,13,6,17,0.00,0,,190
2013-4-24,64,53,42,55,45,37,94,70,52,30.26,30.00,29.84,10,10,4,29,12,38,0.00,5,,235
2013-4-25,59,47,35,37,34,28,93,64,36,30.36,30.31,30.26,10,10,10,14,3,20,0.00,2,,254
2013-4-26,60,48,35,41,35,32,93,57,36,30.45,30.39,30.33,10,10,7,10,2,,0.00,1,,50
2013-4-27,57,54,50,52,47,37,94,77,54,30.35,30.24,30.08,10,10,5,16,3,21,0.00,8,,138
2013-4-28,66,60,53,55,53,50,94,81,64,30.07,29.94,29.88,10,9,3,22,10,33,0.00,7,,190
2013-4-29,64,58,51,54,52,50,94,82,63,30.04,29.99,29.95,10,9,4,7,3,,0.00,6,,228
2013-4-30,77,62,46,55,51,45,100,69,41,30.08,30.03,29.98,10,9,5,8,3,,0.00,0,,176